Time;durP1;ratioP1;P1;durP2;ratioP2;P2;SDS_P1;SDS_P2;PMS_P1;PMS_P2;Temp;Humidity;BMP_temperature;BMP_pressure;BME280_temperature;BME280_humidity;BME280_pressure;Samples;Min_cycle;Max_cycle;Signal;HPM_P1;HPM_P2
2022/03/07 00:00:28;;;;;;;7.53;2.33;;;3.30;99.90;;;;;;5051344;28;20051;-79
2022/03/07 00:02:54;;;;;;;6.00;1.98;;;3.50;99.90;;;;;;5095063;28;20118;-78
2022/03/07 00:05:20;;;;;;;5.68;2.20;;;4.50;99.90;;;;;;5095072;28;20523;-77
2022/03/07 00:07:46;;;;;;;11.00;2.15;;;4.30;99.90;;;;;;5077610;28;20119;-78
2022/03/07 00:10:12;;;;;;;5.88;2.25;;;4.20;99.90;;;;;;5076619;28;20511;-78
2022/03/07 00:12:40;;;;;;;7.57;2.13;;;3.40;99.90;;;;;;5074568;28;20036;-78
2022/03/07 00:15:15;;;;;;;5.07;1.90;;;3.40;99.90;;;;;;5075951;28;20095;-77
2022/03/07 00:17:41;;;;;;;6.70;2.10;;;3.30;99.90;;;;;;5092757;28;20032;-78
2022/03/07 00:20:10;;;;;;;8.23;1.85;;;3.30;99.90;;;;;;5069908;28;20048;-78
2022/03/07 00:22:41;;;;;;;8.73;2.40;;;2.70;99.90;;;;;;5053420;28;20041;-78
2022/03/07 00:25:08;;;;;;;8.65;2.33;;;3.20;99.90;;;;;;5073711;28;20054;-79
2022/03/07 00:27:34;;;;;;;8.27;2.33;;;3.20;99.90;;;;;;5076122;28;20032;-78
2022/03/07 00:30:06;;;;;;;5.25;2.08;;;3.80;99.90;;;;;;5094744;28;20388;-78
2022/03/07 00:32:32;;;;;;;5.15;2.13;;;3.10;99.90;;;;;;5045648;28;20036;-78
2022/03/07 00:34:58;;;;;;;10.27;2.55;;;3.10;99.90;;;;;;5074360;28;20047;-78
2022/03/07 00:37:26;;;;;;;6.40;2.30;;;3.10;99.90;;;;;;5076569;28;20090;-78
2022/03/07 00:39:55;;;;;;;8.77;2.25;;;3.00;99.90;;;;;;5059839;28;20055;-78
2022/03/07 00:42:24;;;;;;;8.00;2.70;;;3.00;99.90;;;;;;5075183;28;20044;-77
2022/03/07 00:44:53;;;;;;;8.15;2.47;;;3.00;99.90;;;;;;5056214;28;20441;-78
2022/03/07 00:47:21;;;;;;;8.45;2.60;;;2.90;99.90;;;;;;5084759;28;20062;-78
2022/03/07 00:49:47;;;;;;;7.05;2.80;;;3.10;99.90;;;;;;5057037;28;20072;-78
2022/03/07 00:52:14;;;;;;;7.90;2.45;;;2.90;99.90;;;;;;5056623;28;20090;-79
2022/03/07 00:54:40;;;;;;;8.82;2.70;;;2.50;99.90;;;;;;5057338;28;20484;-78
2022/03/07 00:57:08;;;;;;;6.60;2.50;;;2.90;99.90;;;;;;5059447;28;20105;-78
2022/03/07 00:59:34;;;;;;;9.05;2.90;;;2.90;99.90;;;;;;5075953;28;20032;-78
2022/03/07 01:02:10;;;;;;;7.32;2.45;;;2.90;99.90;;;;;;5094115;28;20040;-79
2022/03/07 01:04:36;;;;;;;8.93;2.83;;;3.70;99.90;;;;;;5092467;28;20407;-78
2022/03/07 01:07:03;;;;;;;6.20;2.63;;;3.60;99.90;;;;;;5058509;28;20044;-78
2022/03/07 01:09:29;;;;;;;8.30;2.67;;;2.70;99.90;;;;;;5071736;28;20508;-78
2022/03/07 01:11:55;;;;;;;7.45;2.65;;;2.70;99.90;;;;;;5072444;28;20048;-78
2022/03/07 01:14:24;;;;;;;6.93;2.75;;;2.60;99.90;;;;;;5080442;28;20048;-78
2022/03/07 01:16:55;;;;;;;7.50;2.63;;;2.70;99.90;;;;;;5074385;28;20112;-78
2022/03/07 01:19:28;;;;;;;6.72;2.65;;;2.60;99.90;;;;;;5056238;28;20037;-79
2022/03/07 01:21:57;;;;;;;8.30;3.00;;;2.70;99.90;;;;;;5050629;28;20541;-78
2022/03/07 01:24:25;;;;;;;5.43;2.25;;;3.10;99.90;;;;;;5075766;28;20052;-78
2022/03/07 01:27:00;;;;;;;10.38;2.90;;;2.60;99.90;;;;;;5091890;28;20107;-78
2022/03/07 01:29:29;;;;;;;7.53;2.65;;;2.90;99.90;;;;;;5072135;28;20048;-76
2022/03/07 01:32:03;;;;;;;6.60;2.80;;;2.50;99.90;;;;;;5085622;28;20479;-77
2022/03/07 01:34:42;;;;;;;11.23;3.03;;;2.70;99.90;;;;;;5075870;28;20119;-77
2022/03/07 01:37:08;;;;;;;6.55;3.20;;;1.90;99.90;;;;;;5075029;28;20062;-77
2022/03/07 01:39:34;;;;;;;8.40;3.03;;;2.50;99.90;;;;;;5092495;28;20089;-77
2022/03/07 01:42:00;;;;;;;6.97;2.80;;;3.30;99.90;;;;;;5058658;28;20044;-77
2022/03/07 01:44:28;;;;;;;8.65;3.03;;;2.50;99.90;;;;;;5075159;28;20056;-78
2022/03/07 01:46:58;;;;;;;8.02;2.70;;;2.50;99.90;;;;;;5071666;28;20100;-76
2022/03/07 01:49:25;;;;;;;5.10;2.63;;;2.90;99.90;;;;;;5071401;28;20039;-77
2022/03/07 01:51:53;;;;;;;9.05;2.90;;;3.00;99.90;;;;;;5034844;28;20050;-77
2022/03/07 01:54:27;;;;;;;5.28;2.70;;;3.30;99.90;;;;;;5085507;28;20036;-77
2022/03/07 01:56:54;;;;;;;5.07;2.80;;;2.40;99.90;;;;;;5089607;28;20032;-77
2022/03/07 01:59:25;;;;;;;8.75;2.45;;;2.40;99.90;;;;;;5055755;28;20043;-76
2022/03/07 02:01:55;;;;;;;6.05;2.50;;;2.40;99.90;;;;;;5092754;28;20118;-76
2022/03/07 02:04:24;;;;;;;6.35;2.65;;;2.70;99.90;;;;;;5074884;28;20391;-77
2022/03/07 02:06:50;;;;;;;7.57;3.20;;;2.50;99.90;;;;;;5074932;28;20448;-77
2022/03/07 02:09:17;;;;;;;7.63;3.20;;;2.30;99.90;;;;;;5074693;28;20039;-77
2022/03/07 02:11:46;;;;;;;6.97;2.95;;;2.80;99.90;;;;;;5057921;28;20047;-77
2022/03/07 02:14:17;;;;;;;5.72;3.15;;;2.30;99.90;;;;;;5075798;28;20109;-77
2022/03/07 02:16:44;;;;;;;6.95;3.65;;;3.20;99.90;;;;;;5076455;28;20036;-77
2022/03/07 02:19:13;;;;;;;6.20;2.55;;;3.00;99.90;;;;;;5071126;28;20046;-77
2022/03/07 02:21:46;;;;;;;10.68;2.85;;;3.00;99.90;;;;;;5052337;28;20032;-77
2022/03/07 02:24:12;;;;;;;5.68;2.65;;;2.30;99.90;;;;;;5072076;28;20126;-77
2022/03/07 02:26:39;;;;;;;5.07;2.58;;;2.70;99.90;;;;;;5071464;28;20044;-77
2022/03/07 02:29:07;;;;;;;5.88;2.45;;;2.40;99.90;;;;;;5067700;28;20040;-77
2022/03/07 02:31:34;;;;;;;8.85;2.92;;;2.20;99.90;;;;;;5074832;28;20079;-77
2022/03/07 02:34:01;;;;;;;8.63;3.25;;;2.20;99.90;;;;;;5074977;28;20376;-78
2022/03/07 02:36:27;;;;;;;5.95;3.05;;;3.00;99.90;;;;;;5074543;28;20036;-76
2022/03/07 02:38:53;;;;;;;5.38;2.63;;;2.00;99.90;;;;;;5071660;28;20051;-76
2022/03/07 02:41:19;;;;;;;4.68;2.45;;;2.20;99.90;;;;;;5052638;28;20128;-77
2022/03/07 02:43:45;;;;;;;9.45;2.80;;;2.10;99.90;;;;;;5088344;28;20055;-76
2022/03/07 02:46:11;;;;;;;6.15;2.38;;;2.10;99.90;;;;;;5074511;28;20036;-76
2022/03/07 02:48:39;;;;;;;9.32;3.03;;;2.10;99.90;;;;;;5078436;28;20028;-78
2022/03/07 02:51:06;;;;;;;6.53;2.75;;;2.10;99.90;;;;;;5078206;28;20404;-78
2022/03/07 02:53:33;;;;;;;6.05;2.85;;;2.30;99.90;;;;;;5061508;28;20533;-77
2022/03/07 02:56:00;;;;;;;8.77;3.00;;;2.10;99.90;;;;;;5096796;28;20055;-77
2022/03/07 02:58:25;;;;;;;8.25;2.90;;;2.00;99.90;;;;;;5078299;28;20047;-77
2022/03/07 03:00:51;;;;;;;4.85;2.47;;;2.00;99.90;;;;;;5061478;28;20036;-78
2022/03/07 03:03:17;;;;;;;5.32;3.00;;;2.00;99.90;;;;;;5061480;28;20070;-76
2022/03/07 03:05:45;;;;;;;7.38;3.15;;;2.10;99.90;;;;;;5097248;28;20036;-77
2022/03/07 03:08:11;;;;;;;8.55;3.45;;;2.00;99.90;;;;;;5078378;28;20040;-77
2022/03/07 03:10:37;;;;;;;6.90;3.00;;;2.00;99.90;;;;;;5095822;28;20138;-76
2022/03/07 03:13:03;;;;;;;5.60;2.72;;;1.90;99.90;;;;;;5060280;28;20036;-77
2022/03/07 03:15:29;;;;;;;7.03;3.30;;;1.90;99.90;;;;;;5077833;28;20048;-77
2022/03/07 03:17:55;;;;;;;6.35;3.03;;;1.90;99.90;;;;;;5077862;28;20406;-77
2022/03/07 03:20:24;;;;;;;5.82;2.92;;;1.80;99.90;;;;;;5059130;28;20032;-77
2022/03/07 03:22:49;;;;;;;8.18;3.40;;;2.30;99.90;;;;;;5095624;28;20567;-76
2022/03/07 03:25:15;;;;;;;8.88;4.15;;;1.70;99.90;;;;;;5077467;28;20044;-76
2022/03/07 03:27:42;;;;;;;8.10;3.42;;;1.80;99.90;;;;;;5077424;28;20127;-77
2022/03/07 03:30:11;;;;;;;8.23;3.67;;;1.80;99.90;;;;;;5078602;28;20047;-76
2022/03/07 03:32:37;;;;;;;9.38;3.90;;;1.80;99.90;;;;;;5079040;28;20062;-77
2022/03/07 03:35:03;;;;;;;8.00;3.75;;;1.80;99.90;;;;;;5076447;28;20480;-77
2022/03/07 03:37:29;;;;;;;6.72;3.50;;;1.70;99.90;;;;;;5077776;28;20142;-77
2022/03/07 03:39:55;;;;;;;8.65;3.90;;;1.50;99.90;;;;;;5041529;28;20499;-77
2022/03/07 03:42:24;;;;;;;8.85;3.55;;;1.70;99.90;;;;;;5062233;28;20039;-78
2022/03/07 03:44:50;;;;;;;11.82;3.78;;;1.70;99.90;;;;;;5059123;28;20182;-79
2022/03/07 03:47:16;;;;;;;8.25;3.42;;;1.70;99.90;;;;;;5092440;28;20075;-79
2022/03/07 03:49:44;;;;;;;8.55;3.53;;;1.60;99.90;;;;;;5096330;28;20040;-79
2022/03/07 03:52:11;;;;;;;12.60;4.40;;;1.60;99.90;;;;;;5094724;28;20043;-79
2022/03/07 03:54:37;;;;;;;8.77;4.18;;;1.60;99.90;;;;;;5060534;28;20046;-79
2022/03/07 03:57:03;;;;;;;9.38;3.83;;;1.80;99.90;;;;;;5077040;28;20040;-78
2022/03/07 03:59:29;;;;;;;9.82;3.60;;;1.60;99.90;;;;;;5077340;28;20121;-78
2022/03/07 04:01:54;;;;;;;9.57;4.25;;;1.90;99.90;;;;;;5095046;28;20480;-78
2022/03/07 04:04:23;;;;;;;6.40;3.75;;;1.50;99.90;;;;;;5059473;28;20165;-78
2022/03/07 04:06:49;;;;;;;9.70;4.05;;;1.50;99.90;;;;;;5093892;28;20040;-78
2022/03/07 04:09:25;;;;;;;11.63;4.00;;;1.50;99.90;;;;;;5076870;28;20108;-79
2022/03/07 04:11:51;;;;;;;13.93;5.10;;;1.50;99.90;;;;;;5095153;28;20036;-79
2022/03/07 04:14:19;;;;;;;7.43;4.05;;;1.50;99.90;;;;;;5094990;28;20044;-79
2022/03/07 04:16:45;;;;;;;11.68;4.53;;;2.40;99.90;;;;;;5076961;28;20135;-79
2022/03/07 04:19:12;;;;;;;7.03;4.05;;;1.50;99.90;;;;;;5053750;28;20107;-79
2022/03/07 04:21:39;;;;;;;17.58;4.60;;;1.50;99.90;;;;;;5076833;28;20028;-79
2022/03/07 04:24:07;;;;;;;7.55;4.32;;;2.10;99.90;;;;;;5051310;28;20045;-79
2022/03/07 04:26:36;;;;;;;13.60;4.43;;;1.50;99.90;;;;;;5081605;28;20040;-79
2022/03/07 04:29:08;;;;;;;10.20;4.43;;;1.40;99.90;;;;;;5055837;28;20063;-78
2022/03/07 04:31:45;;;;;;;12.07;4.72;;;1.40;99.90;;;;;;5059510;28;20040;-79
2022/03/07 04:34:14;;;;;;;11.50;4.20;;;1.70;99.90;;;;;;5076036;28;20040;-79
2022/03/07 04:36:41;;;;;;;8.80;4.82;;;1.50;99.90;;;;;;5072081;28;20091;-78
2022/03/07 04:39:09;;;;;;;12.00;4.85;;;1.40;99.90;;;;;;5074165;28;20036;-79
2022/03/07 04:41:39;;;;;;;12.38;4.40;;;1.40;99.90;;;;;;5055755;28;20047;-79
2022/03/07 04:44:08;;;;;;;10.82;4.80;;;2.00;99.90;;;;;;5091113;28;20048;-79
2022/03/07 04:46:34;;;;;;;10.45;4.88;;;1.30;99.90;;;;;;5062224;28;20431;-79
2022/03/07 04:49:02;;;;;;;9.32;4.32;;;1.30;99.90;;;;;;5072730;28;20040;-79
2022/03/07 04:51:30;;;;;;;8.50;5.25;;;1.30;99.90;;;;;;5043252;28;20047;-79
2022/03/07 04:53:56;;;;;;;14.23;4.75;;;1.30;99.90;;;;;;5059786;28;20040;-79
2022/03/07 04:56:22;;;;;;;8.82;4.20;;;1.40;99.90;;;;;;5093967;28;20051;-78
2022/03/07 04:58:48;;;;;;;9.77;5.10;;;2.20;99.90;;;;;;5075998;28;20449;-79
2022/03/07 05:01:14;;;;;;;11.30;5.18;;;1.30;99.90;;;;;;5092898;28;20075;-78
2022/03/07 05:03:40;;;;;;;7.60;4.47;;;1.20;99.90;;;;;;5071667;28;20094;-78
2022/03/07 05:06:08;;;;;;;10.15;4.90;;;1.20;99.90;;;;;;5056254;28;20441;-78
2022/03/07 05:08:37;;;;;;;11.43;5.25;;;1.20;99.90;;;;;;5053881;28;20040;-79
2022/03/07 05:11:03;;;;;;;16.92;5.00;;;1.10;99.90;;;;;;5063918;28;20076;-79
2022/03/07 05:13:31;;;;;;;10.10;4.55;;;1.40;99.90;;;;;;5055548;28;20544;-79
2022/03/07 05:15:57;;;;;;;11.50;4.65;;;1.20;99.90;;;;;;5070543;28;20495;-79
2022/03/07 05:18:23;;;;;;;11.02;4.93;;;1.40;99.90;;;;;;5075043;28;20046;-78
2022/03/07 05:20:48;;;;;;;10.50;4.47;;;1.20;99.90;;;;;;5075236;28;20043;-77
2022/03/07 05:23:14;;;;;;;7.68;4.32;;;1.10;99.90;;;;;;5092906;28;20040;-78
2022/03/07 05:25:40;;;;;;;9.73;4.60;;;1.10;99.90;;;;;;5093577;28;20043;-77
2022/03/07 05:28:06;;;;;;;10.32;4.68;;;0.90;99.90;;;;;;5052965;28;20084;-78
2022/03/07 05:30:31;;;;;;;12.38;4.82;;;2.20;99.90;;;;;;5067150;28;20054;-77
2022/03/07 05:32:58;;;;;;;10.13;4.90;;;1.10;99.90;;;;;;5058124;28;20039;-78
2022/03/07 05:35:24;;;;;;;11.88;4.72;;;1.10;99.90;;;;;;5074944;28;20145;-78
2022/03/07 05:37:51;;;;;;;7.88;4.65;;;1.10;99.90;;;;;;5055190;28;20040;-78
2022/03/07 05:40:17;;;;;;;15.60;4.70;;;1.10;99.90;;;;;;5049880;28;20051;-79
2022/03/07 05:42:46;;;;;;;12.68;4.82;;;1.90;99.90;;;;;;5075133;28;20408;-79
2022/03/07 05:45:15;;;;;;;13.65;5.28;;;1.80;99.90;;;;;;5075091;28;20480;-79
2022/03/07 05:47:44;;;;;;;11.50;5.55;;;1.00;99.90;;;;;;5055188;28;20044;-79
2022/03/07 05:50:11;;;;;;;13.05;5.22;;;1.00;99.90;;;;;;5088084;28;20103;-79
2022/03/07 05:52:37;;;;;;;13.13;5.60;;;2.10;99.90;;;;;;5073510;28;20040;-79
2022/03/07 05:55:07;;;;;;;13.23;5.78;;;1.00;99.90;;;;;;5091952;28;20122;-79
2022/03/07 05:57:33;;;;;;;10.10;4.97;;;1.00;99.90;;;;;;5048070;28;20044;-79
2022/03/07 05:59:59;;;;;;;13.90;5.55;;;1.50;99.90;;;;;;5046221;28;20040;-79
2022/03/07 06:02:25;;;;;;;19.20;6.35;;;0.90;99.90;;;;;;5056520;28;20496;-78
2022/03/07 06:04:52;;;;;;;14.43;6.15;;;1.10;99.90;;;;;;5058233;28;20404;-79
2022/03/07 06:07:34;;;;;;;13.63;5.38;;;1.00;99.90;;;;;;5058587;28;20117;-79
2022/03/07 06:10:25;;;;;;;18.65;5.97;;;1.00;99.90;;;;;;5041957;28;20404;-79
2022/03/07 06:17:04;;;;;;;20.90;5.88;;;1.00;99.90;;;;;;4987510;28;20057;-79
2022/03/07 06:23:24;;;;;;;28.40;6.47;;;1.00;99.90;;;;;;4944829;28;20485;-78
2022/03/07 06:26:39;;;;;;;19.38;6.82;;;1.50;99.90;;;;;;4932606;28;20435;-78
2022/03/07 06:29:06;;;;;;;30.73;6.90;;;1.10;99.90;;;;;;5062577;28;20048;-77
2022/03/07 06:31:32;;;;;;;23.17;7.00;;;1.00;99.90;;;;;;5069260;28;20041;-77
2022/03/07 06:33:58;;;;;;;22.42;6.43;;;0.30;99.90;;;;;;5074732;28;20509;-78
2022/03/07 06:36:29;;;;;;;15.15;5.95;;;1.00;99.90;;;;;;5057486;28;20036;-76
2022/03/07 06:40:13;;;;;;;;;;;;;;;;;;;;;
2022/03/07 06:42:48;;;;;;;17.42;6.25;;;1.10;99.90;;;;;;4999666;28;20140;-76
2022/03/07 06:45:17;;;;;;;19.73;7.28;;;0.70;99.90;;;;;;4997505;28;20049;-76
2022/03/07 06:47:51;;;;;;;23.02;7.47;;;0.40;99.90;;;;;;5060915;28;20055;-76
2022/03/07 06:50:17;;;;;;;28.23;7.75;;;1.40;99.90;;;;;;5074569;28;20169;-77
2022/03/07 06:52:52;;;;;;;23.10;8.68;;;0.90;99.90;;;;;;5090670;28;20048;-78
2022/03/07 06:55:19;;;;;;;36.28;8.18;;;1.20;99.90;;;;;;5074149;28;20404;-79
2022/03/07 06:57:44;;;;;;;26.10;9.32;;;1.50;99.90;;;;;;5074164;28;20036;-79
2022/03/07 07:00:18;;;;;;;31.67;9.32;;;1.40;99.90;;;;;;5074290;28;20081;-78
2022/03/07 07:02:45;;;;;;;26.67;8.18;;;1.30;99.90;;;;;;5068469;28;20033;-79
2022/03/07 07:05:12;;;;;;;28.02;9.20;;;2.10;99.90;;;;;;5040538;28;20098;-76
2022/03/07 07:07:42;;;;;;;30.10;7.85;;;1.40;99.90;;;;;;5073171;28;20487;-80
2022/03/07 07:10:38;;;;;;;;;;;;;;;;;;;;;
2022/03/07 07:13:14;;;;;;;22.52;6.30;;;2.00;99.90;;;;;;5051794;28;20056;-81
2022/03/07 07:15:43;;;;;;;20.40;6.22;;;1.50;99.90;;;;;;5077154;28;20036;-83
2022/03/07 07:18:09;;;;;;;19.88;5.85;;;2.00;99.90;;;;;;5057149;28;20480;-81
2022/03/07 07:20:35;;;;;;;18.80;5.28;;;1.50;99.90;;;;;;5067524;28;20124;-80
2022/03/07 07:23:03;;;;;;;17.80;5.43;;;1.70;99.90;;;;;;5037993;28;20075;-79
2022/03/07 07:25:29;;;;;;;15.25;5.30;;;2.50;99.90;;;;;;5054795;28;20083;-77
2022/03/07 07:28:05;;;;;;;16.40;5.63;;;2.20;99.90;;;;;;5092361;28;20036;-78
2022/03/07 07:30:34;;;;;;;17.70;5.72;;;1.80;99.90;;;;;;5053539;28;20400;-78
2022/03/07 07:33:00;;;;;;;14.93;6.00;;;1.70;99.90;;;;;;5083123;28;20083;-79
2022/03/07 07:35:28;;;;;;;15.05;5.40;;;1.70;99.90;;;;;;5097229;28;20075;-78
2022/03/07 07:37:54;;;;;;;25.02;6.85;;;2.10;99.90;;;;;;5049521;28;20055;-79
2022/03/07 07:40:21;;;;;;;20.80;6.60;;;1.80;99.90;;;;;;5041840;28;20458;-80
2022/03/07 07:42:53;;;;;;;17.90;6.68;;;1.90;99.90;;;;;;5067208;28;20052;-82
2022/03/07 07:45:37;;;;;;;13.30;5.88;;;1.90;99.90;;;;;;5078641;28;20105;-79
2022/03/07 07:48:04;;;;;;;16.67;6.05;;;2.00;99.90;;;;;;5041100;28;20047;-80
2022/03/07 07:50:32;;;;;;;16.77;6.22;;;1.90;99.90;;;;;;5057557;28;20059;-78
2022/03/07 07:53:03;;;;;;;17.15;6.07;;;1.90;99.90;;;;;;5094037;28;20028;-78
2022/03/07 07:55:29;;;;;;;13.00;5.75;;;2.20;99.90;;;;;;5076483;28;20047;-78
2022/03/07 07:57:55;;;;;;;15.65;5.80;;;3.10;99.90;;;;;;5057010;28;20043;-75
2022/03/07 08:00:21;;;;;;;13.43;5.30;;;2.30;99.90;;;;;;5054457;28;20055;-73
2022/03/07 08:03:05;;;;;;;;;;;;;;;;;;;;;
2022/03/07 08:05:39;;;;;;;18.45;5.20;;;2.00;99.90;;;;;;5069686;28;20532;-77
2022/03/07 08:08:13;;;;;;;18.77;5.45;;;2.60;99.90;;;;;;5041493;28;20037;-76
2022/03/07 08:10:42;;;;;;;8.25;4.93;;;2.60;99.90;;;;;;5052461;28;20051;-77
2022/03/07 08:13:11;;;;;;;11.63;4.72;;;3.50;99.90;;;;;;5075881;28;20044;-76
2022/03/07 08:15:37;;;;;;;13.98;4.60;;;2.40;99.90;;;;;;5043441;28;20059;-76
2022/03/07 08:18:06;;;;;;;13.20;4.63;;;2.90;99.90;;;;;;5050269;28;20044;-77
2022/03/07 08:20:46;;;;;;;7.55;3.95;;;2.90;99.90;;;;;;5056180;28;20036;-77
2022/03/07 08:23:15;;;;;;;18.35;5.35;;;2.70;99.90;;;;;;5031205;28;20076;-76
2022/03/07 08:25:41;;;;;;;13.40;4.22;;;3.50;99.90;;;;;;5055126;28;20519;-76
2022/03/07 08:28:15;;;;;;;7.35;3.72;;;3.20;99.90;;;;;;5051091;28;20161;-76
2022/03/07 08:30:46;;;;;;;10.38;4.40;;;3.20;99.90;;;;;;5076118;28;20094;-76
2022/03/07 08:33:31;;;;;;;12.18;3.78;;;3.10;99.90;;;;;;5058646;28;20046;-76
2022/03/07 08:35:59;;;;;;;8.98;3.70;;;2.90;99.90;;;;;;5059053;28;20101;-77
2022/03/07 08:38:27;;;;;;;12.15;4.18;;;3.30;99.90;;;;;;5058912;28;20499;-77
2022/03/07 08:41:45;;;;;;;;;;;;;;;;;;;;;
2022/03/07 08:44:30;;;;;;;10.77;3.47;;;3.40;99.90;;;;;;5082026;28;20048;-76
2022/03/07 08:46:56;;;;;;;7.93;3.40;;;3.50;99.90;;;;;;5059719;28;20407;-76
2022/03/07 08:49:22;;;;;;;7.38;3.55;;;3.60;99.90;;;;;;5040130;28;20319;-77
2022/03/07 08:52:16;;;;;;;8.35;3.25;;;3.60;99.90;;;;;;5068373;28;20105;-76
2022/03/07 08:54:47;;;;;;;14.30;3.92;;;3.70;99.90;;;;;;5074415;28;20549;-76
2022/03/07 08:57:16;;;;;;;10.02;3.53;;;3.70;99.90;;;;;;5056922;28;20157;-76
2022/03/07 09:00:47;;;;;;;8.70;3.75;;;4.30;99.90;;;;;;5057710;28;20050;-76
2022/03/07 09:03:41;;;;;;;12.32;3.60;;;3.90;99.90;;;;;;5030033;28;20041;-76
2022/03/07 09:06:17;;;;;;;11.95;3.55;;;3.90;99.90;;;;;;5011693;28;20481;-76
2022/03/07 09:08:45;;;;;;;9.98;3.58;;;4.00;99.90;;;;;;5030121;28;20084;-75
2022/03/07 09:11:16;;;;;;;13.23;3.72;;;4.10;99.90;;;;;;5021531;28;20040;-75
2022/03/07 09:13:47;;;;;;;10.13;3.40;;;4.10;99.90;;;;;;5009051;28;20055;-75
2022/03/07 09:16:16;;;;;;;10.15;3.72;;;4.00;99.90;;;;;;5056237;28;20054;-76
2022/03/07 09:18:47;;;;;;;10.52;3.80;;;4.20;99.90;;;;;;5024072;28;20041;-76
2022/03/07 09:21:15;;;;;;;12.13;3.63;;;5.00;99.90;;;;;;5051340;28;20503;-75
2022/03/07 09:23:46;;;;;;;12.35;4.20;;;4.50;99.90;;;;;;5055100;28;20040;-75
2022/03/07 09:26:13;;;;;;;9.05;3.40;;;4.30;99.90;;;;;;5048161;28;20048;-76
2022/03/07 09:28:39;;;;;;;12.48;3.70;;;4.30;99.90;;;;;;5055358;28;20040;-74
2022/03/07 09:31:08;;;;;;;10.27;3.30;;;4.80;99.90;;;;;;5058163;28;20048;-74
2022/03/07 09:33:35;;;;;;;9.23;3.70;;;4.60;99.90;;;;;;5074934;28;20036;-77
2022/03/07 09:36:01;;;;;;;11.55;3.70;;;4.40;99.90;;;;;;5057448;28;20040;-75
2022/03/07 09:38:29;;;;;;;16.10;3.50;;;4.50;99.90;;;;;;5093213;28;20085;-74
2022/03/07 09:40:56;;;;;;;15.10;3.25;;;4.60;99.90;;;;;;5075024;28;20089;-74
2022/03/07 09:43:25;;;;;;;11.90;3.17;;;4.60;99.90;;;;;;5089088;28;20032;-74
2022/03/07 09:45:54;;;;;;;8.57;3.70;;;4.70;99.90;;;;;;5073256;28;20056;-77
2022/03/07 09:48:22;;;;;;;8.43;2.97;;;4.70;99.90;;;;;;5091527;28;20073;-77
2022/03/07 09:50:50;;;;;;;7.45;2.53;;;4.80;99.90;;;;;;5072010;28;20039;-77
2022/03/07 09:53:18;;;;;;;9.02;2.70;;;5.00;99.90;;;;;;5056475;28;20044;-79
2022/03/07 09:55:53;;;;;;;9.63;2.78;;;4.80;99.90;;;;;;5072368;28;20047;-74
2022/03/07 09:58:34;;;;;;;14.07;2.90;;;4.80;99.90;;;;;;5073104;28;20420;-76
2022/03/07 10:01:38;;;;;;;10.10;2.65;;;4.90;99.90;;;;;;5092270;28;20391;-77
2022/03/07 10:04:10;;;;;;;16.38;2.67;;;5.00;99.90;;;;;;5033629;28;20037;-77
2022/03/07 10:06:36;;;;;;;6.55;2.15;;;5.70;99.90;;;;;;5049808;28;20448;-75
2022/03/07 10:09:03;;;;;;;9.23;2.50;;;5.20;99.90;;;;;;5054071;28;20056;-75
2022/03/07 10:11:30;;;;;;;13.23;2.78;;;5.10;99.90;;;;;;5056931;28;20044;-75
2022/03/07 10:13:59;;;;;;;11.48;2.53;;;5.20;99.90;;;;;;5074943;28;20043;-75
2022/03/07 10:16:36;;;;;;;8.80;2.55;;;5.40;99.90;;;;;;5092706;28;20480;-75
2022/03/07 10:19:15;;;;;;;8.60;2.47;;;5.30;99.90;;;;;;5092352;28;20055;-74
2022/03/07 10:21:46;;;;;;;9.02;2.38;;;5.40;99.90;;;;;;5092434;28;20165;-75
2022/03/07 10:24:16;;;;;;;21.55;2.47;;;5.70;99.90;;;;;;5074600;28;20036;-74
2022/03/07 10:26:42;;;;;;;8.82;2.47;;;5.50;99.90;;;;;;5067537;28;20075;-74
2022/03/07 10:29:09;;;;;;;9.13;2.45;;;5.60;99.90;;;;;;5071828;28;20040;-74
2022/03/07 10:31:35;;;;;;;9.00;2.58;;;5.90;99.90;;;;;;5074169;28;20115;-75
2022/03/07 10:34:07;;;;;;;12.75;2.30;;;5.80;99.90;;;;;;5056615;28;20131;-75
2022/03/07 10:36:35;;;;;;;7.03;2.22;;;5.70;99.90;;;;;;5092227;28;20119;-75
2022/03/07 10:39:04;;;;;;;10.57;2.70;;;5.60;99.90;;;;;;5074557;28;20040;-75
2022/03/07 10:41:37;;;;;;;10.30;2.50;;;5.50;99.90;;;;;;5092457;28;20040;-75
2022/03/07 10:44:05;;;;;;;9.30;2.55;;;5.70;99.90;;;;;;5092392;28;20075;-75
2022/03/07 10:46:40;;;;;;;11.13;2.17;;;5.50;99.90;;;;;;5094815;28;20383;-75
2022/03/07 10:49:20;;;;;;;6.35;2.42;;;5.50;99.90;;;;;;5094863;28;20434;-75
2022/03/07 10:51:55;;;;;;;14.23;2.55;;;5.50;99.90;;;;;;5060373;28;20424;-74
2022/03/07 10:54:24;;;;;;;6.45;2.40;;;5.60;99.90;;;;;;5092226;28;20040;-75
2022/03/07 10:56:56;;;;;;;8.65;2.25;;;5.50;99.90;;;;;;5057789;28;20040;-75
2022/03/07 10:59:32;;;;;;;5.70;2.22;;;5.60;99.90;;;;;;5057366;28;20544;-75
2022/03/07 11:02:05;;;;;;;8.40;2.30;;;5.60;99.90;;;;;;5074347;28;20115;-75
2022/03/07 11:04:31;;;;;;;10.13;1.90;;;5.60;99.90;;;;;;5092396;28;20085;-75
2022/03/07 11:07:00;;;;;;;10.45;2.47;;;5.70;99.90;;;;;;5093050;28;20044;-75
2022/03/07 11:09:27;;;;;;;10.02;2.42;;;5.80;99.90;;;;;;5061772;28;20434;-75
2022/03/07 11:11:54;;;;;;;9.45;2.45;;;5.90;99.90;;;;;;5078187;28;20413;-75
2022/03/07 11:14:20;;;;;;;7.38;2.72;;;6.20;99.90;;;;;;5077749;28;20040;-74
2022/03/07 11:16:47;;;;;;;7.40;2.55;;;6.10;99.90;;;;;;5061026;28;20036;-74
2022/03/07 11:19:16;;;;;;;6.68;2.45;;;6.10;99.90;;;;;;5078097;28;20036;-74
2022/03/07 11:21:45;;;;;;;6.75;2.42;;;6.10;99.90;;;;;;5095865;28;20507;-74
2022/03/07 11:24:11;;;;;;;10.43;2.65;;;6.10;99.90;;;;;;5096127;28;20132;-74
2022/03/07 11:26:41;;;;;;;6.20;2.13;;;6.20;99.90;;;;;;5060969;28;20094;-74
2022/03/07 11:29:10;;;;;;;4.70;1.98;;;6.20;99.90;;;;;;5077977;28;20035;-74
2022/03/07 11:31:38;;;;;;;2.55;1.73;;;6.30;99.90;;;;;;5077589;28;20036;-74
2022/03/07 11:34:09;;;;;;;3.97;1.75;;;6.50;99.90;;;;;;5077418;28;20042;-74
2022/03/07 11:36:41;;;;;;;4.95;1.98;;;6.40;99.90;;;;;;5077378;28;20039;-74
2022/03/07 11:39:08;;;;;;;6.90;2.10;;;6.40;99.90;;;;;;5077335;28;20518;-74
2022/03/07 11:41:37;;;;;;;4.57;1.70;;;6.40;99.90;;;;;;5077393;28;20097;-74
2022/03/07 11:44:07;;;;;;;8.95;2.03;;;6.40;99.90;;;;;;5095413;28;20135;-74
2022/03/07 11:46:51;;;;;;;7.40;2.10;;;6.50;99.90;;;;;;5095364;28;20051;-73
2022/03/07 11:49:28;;;;;;;4.72;1.85;;;6.60;99.90;;;;;;5077212;28;20051;-74
2022/03/07 11:52:00;;;;;;;4.78;1.83;;;6.50;99.90;;;;;;5077125;28;20127;-74
2022/03/07 11:54:26;;;;;;;4.20;1.80;;;6.50;99.90;;;;;;5077086;28;20403;-74
2022/03/07 11:57:03;;;;;;;5.97;1.70;;;6.60;99.90;;;;;;5077096;28;20039;-74
2022/03/07 11:59:30;;;;;;;6.03;2.15;;;6.70;99.90;;;;;;5094187;28;20107;-73
2022/03/07 12:01:56;;;;;;;3.38;1.60;;;7.10;99.90;;;;;;5076832;28;20036;-73
2022/03/07 12:04:22;;;;;;;4.10;1.50;;;6.80;99.90;;;;;;5095076;28;20109;-74
2022/03/07 12:06:53;;;;;;;5.60;1.83;;;6.70;99.90;;;;;;5076944;28;20097;-73
2022/03/07 12:09:33;;;;;;;6.28;1.98;;;6.90;99.90;;;;;;5095164;28;20047;-74
2022/03/07 12:11:59;;;;;;;5.30;1.67;;;6.80;99.90;;;;;;5076995;28;20090;-74
2022/03/07 12:14:28;;;;;;;6.72;1.75;;;7.20;99.90;;;;;;5076889;28;20040;-73
2022/03/07 12:16:54;;;;;;;2.75;1.30;;;6.90;99.90;;;;;;5076475;28;20040;-74
2022/03/07 12:19:22;;;;;;;6.90;1.65;;;6.90;99.90;;;;;;5076808;28;20118;-75
2022/03/07 12:21:48;;;;;;;6.68;1.80;;;6.90;99.90;;;;;;5076840;28;20079;-75
2022/03/07 12:25:55;;;;;;;;;;;;;;;;;;;;;
2022/03/07 12:28:33;;;;;;;4.18;1.27;;;6.90;99.90;;;;;;5002532;28;20486;-75
2022/03/07 12:30:59;;;;;;;5.38;1.50;;;6.90;99.90;;;;;;4974309;28;20050;-75
2022/03/07 12:33:26;;;;;;;3.33;1.70;;;7.70;99.90;;;;;;5032114;28;20049;-75
2022/03/07 12:36:01;;;;;;;4.45;1.58;;;7.00;99.90;;;;;;4999094;28;20508;-75
2022/03/07 12:38:30;;;;;;;3.13;1.70;;;7.40;99.90;;;;;;4999295;28;20040;-75
2022/03/07 12:41:00;;;;;;;5.97;2.05;;;7.40;99.90;;;;;;5089800;28;20044;-75
2022/03/07 12:43:27;;;;;;;3.85;1.88;;;7.20;99.90;;;;;;5093239;28;20178;-75
2022/03/07 12:45:57;;;;;;;6.85;2.25;;;7.20;99.90;;;;;;5094363;28;20055;-75
2022/03/07 12:48:36;;;;;;;4.68;1.50;;;7.00;99.90;;;;;;5059622;28;20048;-74
2022/03/07 12:51:16;;;;;;;3.78;1.63;;;7.00;99.90;;;;;;5076332;28;20396;-74
2022/03/07 12:53:52;;;;;;;6.03;1.70;;;7.00;99.90;;;;;;5076185;28;20400;-74
2022/03/07 12:56:34;;;;;;;4.40;1.73;;;7.00;99.90;;;;;;5076213;28;20376;-74
2022/03/07 12:58:59;;;;;;;3.20;1.50;;;7.00;99.90;;;;;;5076225;28;20429;-74
2022/03/07 13:01:27;;;;;;;5.93;1.50;;;7.20;99.90;;;;;;5075964;28;20036;-74
2022/03/07 13:03:55;;;;;;;6.63;1.58;;;7.10;99.90;;;;;;5075800;28;20079;-75
2022/03/07 13:06:25;;;;;;;6.90;1.83;;;7.10;99.90;;;;;;5075799;28;20097;-75
2022/03/07 13:08:53;;;;;;;8.93;1.98;;;7.20;99.90;;;;;;5075734;28;20488;-75
2022/03/07 13:11:38;;;;;;;4.32;2.13;;;7.20;99.90;;;;;;5075875;28;20036;-74
2022/03/07 13:14:18;;;;;;;5.00;2.00;;;7.20;99.90;;;;;;5075484;28;20495;-75
2022/03/07 13:16:44;;;;;;;9.25;2.00;;;7.20;99.90;;;;;;5075759;28;20476;-74
2022/03/07 13:19:11;;;;;;;5.72;2.22;;;7.30;99.90;;;;;;5075622;28;20035;-74
2022/03/07 13:21:40;;;;;;;5.53;2.28;;;7.40;99.90;;;;;;5093672;28;20040;-73